createdAt,value
2023-02-14T00:01:58.724Z,103500.16
2023-02-14T00:04:31.973Z,103493.16
2023-02-14T00:07:01.872Z,103490.47
2023-02-14T00:09:37.016Z,103500.75
2023-02-14T00:12:08.122Z,103504.81
2023-02-14T00:14:56.649Z,103498.94
2023-02-14T00:17:24.083Z,103493.53
2023-02-14T00:19:54.590Z,103495.94
2023-02-14T00:22:26.693Z,103485.19
2023-02-14T00:24:56.445Z,103482.50
2023-02-14T00:27:26.799Z,103480.50
2023-02-14T00:29:55.105Z,103489.31
2023-02-14T00:32:25.325Z,103485.59
2023-02-14T00:34:54.072Z,103472.63
2023-02-14T00:37:27.185Z,103475.22
2023-02-14T00:39:56.888Z,103478.88
2023-02-14T00:42:27.134Z,103469.38
2023-02-14T00:44:57.586Z,103475.19
2023-02-14T00:47:42.430Z,103471.44
2023-02-14T00:50:13.887Z,103475.75
2023-02-14T00:52:41.784Z,103461.16
2023-02-14T00:55:17.893Z,103460.06
2023-02-14T00:57:51.689Z,103463.25
2023-02-14T01:00:22.725Z,103458.94
2023-02-14T01:02:56.822Z,103459.84
2023-02-14T01:05:26.597Z,103466.00
2023-02-14T01:07:54.160Z,103467.25
2023-02-14T01:10:22.392Z,103459.25
2023-02-14T01:12:55.658Z,103461.75
2023-02-14T01:15:36.033Z,103459.06
2023-02-14T01:18:04.090Z,103460.75
2023-02-14T01:20:37.009Z,103458.41
2023-02-14T01:23:12.459Z,103458.06
2023-02-14T01:25:40.947Z,103457.66
2023-02-14T01:28:19.150Z,103455.16
2023-02-14T01:30:54.274Z,103458.06
2023-02-14T01:33:32.662Z,103451.09
2023-02-14T01:36:04.592Z,103452.78
2023-02-14T01:38:33.226Z,103451.09
2023-02-14T01:41:10.562Z,103443.88
2023-02-14T01:44:12.243Z,103443.34
2023-02-14T01:46:44.427Z,103444.34
2023-02-14T01:49:19.222Z,103440.53
2023-02-14T01:52:20.236Z,103442.03
2023-02-14T01:55:24.604Z,103448.66
2023-02-14T01:58:03.216Z,103433.56
2023-02-14T02:00:50.105Z,103442.25
2023-02-14T02:03:19.719Z,103439.44
2023-02-14T02:05:58.673Z,103444.97
2023-02-14T02:08:27.132Z,103441.47
2023-02-14T02:10:59.202Z,103439.22
2023-02-14T02:13:27.035Z,103438.31
2023-02-14T02:16:33.960Z,103433.13
2023-02-14T02:19:36.675Z,103429.72
2023-02-14T02:22:10.129Z,103416.66
2023-02-14T02:24:49.732Z,103422.97
2023-02-14T02:27:56.848Z,103421.97
2023-02-14T02:30:54.858Z,103418.25
2023-02-14T02:33:47.841Z,103419.97
2023-02-14T02:36:36.140Z,103415.22
2023-02-14T02:39:09.973Z,103412.41
2023-02-14T02:42:00.942Z,103415.09
2023-02-14T02:45:01.763Z,103409.13
2023-02-14T02:47:58.376Z,103409.59
2023-02-14T02:50:50.345Z,103407.22
2023-02-14T02:53:25.331Z,103403.94
2023-02-14T02:56:28.369Z,103406.31
2023-02-14T02:59:18.864Z,103408.13
2023-02-14T03:02:09.938Z,103408.69
2023-02-14T03:04:55.117Z,103406.34
2023-02-14T03:07:40.249Z,103401.84
2023-02-14T03:10:14.469Z,103400.47
2023-02-14T03:13:09.936Z,103400.59
2023-02-14T03:15:56.566Z,103411.75
2023-02-14T03:18:49.772Z,103413.22
2023-02-14T03:21:43.427Z,103412.22
2023-02-14T03:24:31.592Z,103406.13
2023-02-14T03:27:14.906Z,103407.94
2023-02-14T03:29:58.076Z,103402.06
2023-02-14T03:32:46.681Z,103414.56
2023-02-14T03:35:17.413Z,103417.16
2023-02-14T03:38:10.659Z,103404.75
2023-02-14T03:41:13.634Z,103411.66
2023-02-14T03:43:51.946Z,103411.53
2023-02-14T03:46:54.579Z,103411.75
2023-02-14T03:49:30.147Z,103415.59
2023-02-14T03:52:01.496Z,103411.22
2023-02-14T03:54:33.175Z,103413.13
2023-02-14T03:57:14.163Z,103415.13
2023-02-14T03:59:42.410Z,103412.22
2023-02-14T04:02:12.532Z,103416.25
2023-02-14T04:04:46.945Z,103415.00
2023-02-14T04:07:18.941Z,103419.84
2023-02-14T04:09:49.978Z,103417.91
2023-02-14T04:12:32.302Z,103421.78
2023-02-14T04:15:18.873Z,103417.25
2023-02-14T04:18:04.235Z,103419.19
2023-02-14T04:20:32.165Z,103420.41
2023-02-14T04:22:59.964Z,103416.81
2023-02-14T04:25:29.047Z,103416.00
2023-02-14T04:27:56.353Z,103415.69
2023-02-14T04:30:23.797Z,103412.28
2023-02-14T04:32:51.881Z,103421.19
2023-02-14T04:35:21.272Z,103416.13
2023-02-14T04:37:51.158Z,103411.50
2023-02-14T04:40:21.540Z,103415.00
2023-02-14T04:42:52.042Z,103421.75
2023-02-14T04:45:28.314Z,103426.78
2023-02-14T04:47:55.669Z,103415.78
2023-02-14T04:50:26.451Z,103417.69
2023-02-14T04:52:54.094Z,103421.06
2023-02-14T04:55:24.576Z,103423.66
2023-02-14T04:57:55.103Z,103419.50
2023-02-14T05:00:39.271Z,103419.84
2023-02-14T05:03:23.924Z,103419.97
2023-02-14T05:09:00.957Z,103425.56
2023-02-14T05:11:33.621Z,103418.50
2023-02-14T05:14:14.848Z,103419.69
2023-02-14T05:16:44.122Z,103422.41
2023-02-14T05:22:01.772Z,103414.69
2023-02-14T05:24:37.719Z,103422.72
2023-02-14T05:27:10.817Z,103417.16
2023-02-14T05:29:43.558Z,103423.25
2023-02-14T05:32:18.936Z,103423.59
2023-02-14T05:35:00.756Z,103420.22
2023-02-14T05:37:30.136Z,103421.91
2023-02-14T05:40:04.977Z,103422.13
2023-02-14T05:42:36.816Z,103426.28
2023-02-14T05:45:15.357Z,103413.13
2023-02-14T05:47:49.251Z,103416.59
2023-02-14T05:50:29.383Z,103419.41
2023-02-14T05:53:06.705Z,103413.22
2023-02-14T05:55:38.980Z,103418.94
2023-02-14T05:58:11.267Z,103424.47
2023-02-14T06:01:04.860Z,103416.59
2023-02-14T06:03:38.640Z,103423.66
2023-02-14T06:06:29.724Z,103428.94
2023-02-14T06:09:11.515Z,103423.19
2023-02-14T06:11:42.961Z,103422.94
2023-02-14T06:14:16.723Z,103426.22
2023-02-14T06:16:52.047Z,103430.47
2023-02-14T06:19:24.032Z,103432.06
2023-02-14T06:22:00.131Z,103426.88
2023-02-14T06:24:34.636Z,103430.22
2023-02-14T06:29:50.283Z,103435.66
2023-02-14T06:32:20.460Z,103446.13
2023-02-14T06:34:55.941Z,103441.75
2023-02-14T06:37:27.910Z,103446.13
2023-02-14T06:39:58.430Z,103452.09
2023-02-14T06:42:38.048Z,103451.84
2023-02-14T06:48:02.934Z,103460.94
2023-02-14T06:50:35.869Z,103462.13
2023-02-14T06:53:05.946Z,103460.59
2023-02-14T06:55:33.796Z,103459.69
2023-02-14T06:58:06.372Z,103470.09
2023-02-14T07:00:37.104Z,103471.91
2023-02-14T07:03:06.664Z,103473.72
2023-02-14T07:05:35.156Z,103469.66
2023-02-14T07:08:10.680Z,103475.22
2023-02-14T07:10:45.260Z,103474.97
2023-02-14T07:13:14.101Z,103481.94
2023-02-14T07:15:48.299Z,103483.09
2023-02-14T07:18:24.951Z,103481.41
2023-02-14T07:20:59.266Z,103488.50
2023-02-14T07:23:33.266Z,103487.72
2023-02-14T07:26:06.857Z,103487.72
2023-02-14T07:28:45.148Z,103497.19
2023-02-14T07:31:23.200Z,103492.00
2023-02-14T07:33:57.609Z,103504.16
2023-02-14T07:36:28.596Z,103504.81
2023-02-14T07:39:04.190Z,103502.84
2023-02-14T07:41:41.467Z,103504.53
2023-02-14T07:44:19.025Z,103502.91
2023-02-14T07:46:51.845Z,103505.91
2023-02-14T07:49:23.200Z,103509.09
2023-02-14T07:51:58.291Z,103496.22
2023-02-14T07:54:26.613Z,103497.06
2023-02-14T07:57:00.324Z,103493.69
2023-02-14T07:59:34.030Z,103492.22
2023-02-14T08:02:08.008Z,103483.66
2023-02-14T08:04:40.100Z,103486.50
2023-02-14T08:07:08.978Z,103490.22
2023-02-14T08:09:37.281Z,103488.78
2023-02-14T08:12:32.752Z,103488.66
2023-02-14T08:15:21.058Z,103486.19
2023-02-14T08:17:52.060Z,103485.28
2023-02-14T08:20:28.507Z,103486.19
2023-02-14T08:23:08.422Z,103484.88
2023-02-14T08:25:40.292Z,103482.88
2023-02-14T08:28:17.410Z,103482.69
2023-02-14T08:30:52.643Z,103481.75
2023-02-14T08:33:24.525Z,103485.94
2023-02-14T08:36:00.179Z,103476.59
2023-02-14T08:38:35.770Z,103471.56
2023-02-14T08:41:11.079Z,103479.50
2023-02-14T08:43:47.991Z,103474.66
2023-02-14T08:46:44.957Z,103472.38
2023-02-14T08:49:19.157Z,103471.19
2023-02-14T08:51:50.598Z,103468.84
2023-02-14T08:54:27.723Z,103476.16
2023-02-14T08:57:16.065Z,103474.53
2023-02-14T08:59:49.191Z,103464.78
2023-02-14T09:02:27.289Z,103476.88
2023-02-14T09:05:05.627Z,103474.78
2023-02-14T09:07:38.769Z,103469.75
2023-02-14T09:10:12.724Z,103465.00
2023-02-14T09:13:17.799Z,103456.13
2023-02-14T09:15:50.915Z,103449.72
2023-02-14T09:18:27.758Z,103447.78
2023-02-14T09:21:18.996Z,103450.38
2023-02-14T09:23:49.640Z,103446.22
2023-02-14T09:26:23.644Z,103450.72
2023-02-14T09:28:55.816Z,103450.59
2023-02-14T09:31:50.413Z,103442.66
2023-02-14T09:34:34.348Z,103444.81
2023-02-14T09:37:06.498Z,103444.09
2023-02-14T09:39:38.975Z,103428.06
2023-02-14T09:42:35.201Z,103423.16
2023-02-14T09:45:30.369Z,103426.00
2023-02-14T09:48:19.180Z,103418.63
2023-02-14T09:51:06.951Z,103421.13
2023-02-14T09:53:47.652Z,103415.97
2023-02-14T09:56:57.740Z,103416.06
2023-02-14T09:59:29.982Z,103409.28
2023-02-14T10:02:43.406Z,103410.41
2023-02-14T10:05:23.399Z,103401.91
2023-02-14T10:08:08.560Z,103409.50
2023-02-14T10:10:48.420Z,103397.44
2023-02-14T10:13:39.149Z,103400.66
2023-02-14T10:16:37.977Z,103398.53
2023-02-14T10:19:20.226Z,103391.56
2023-02-14T10:22:20.907Z,103393.13
2023-02-14T10:25:24.564Z,103385.41
2023-02-14T10:27:59.404Z,103388.13
2023-02-14T10:30:30.523Z,103386.44
2023-02-14T10:36:38.434Z,103383.72
2023-02-14T10:39:32.048Z,103382.16
2023-02-14T10:42:38.556Z,103371.16
2023-02-14T10:45:29.576Z,103374.63
2023-02-14T10:51:54.333Z,103355.97
2023-02-14T10:54:43.461Z,103353.56
2023-02-14T10:57:39.900Z,103348.13
2023-02-14T11:00:23.004Z,103346.94
2023-02-14T11:03:06.327Z,103345.13
2023-02-14T11:05:52.591Z,103344.41
2023-02-14T11:08:28.196Z,103334.78
2023-02-14T11:11:13.526Z,103334.59
2023-02-14T11:13:50.115Z,103335.56
2023-02-14T11:16:46.599Z,103324.56
2023-02-14T11:19:37.817Z,103331.81
2023-02-14T11:22:16.336Z,103317.91
2023-02-14T11:24:59.327Z,103311.16
2023-02-14T11:27:38.051Z,103316.56
2023-02-14T11:30:28.540Z,103308.09
2023-02-14T11:32:59.544Z,103300.91
2023-02-14T11:35:35.965Z,103296.03
2023-02-14T11:38:23.477Z,103297.69
2023-02-14T11:41:02.005Z,103296.81
2023-02-14T11:43:37.135Z,103289.00
2023-02-14T11:46:17.628Z,103275.66
2023-02-14T11:49:06.292Z,103288.91
2023-02-14T11:51:59.702Z,103276.78
2023-02-14T11:54:50.667Z,103274.72
2023-02-14T12:00:33.398Z,103262.66
2023-02-14T12:03:27.096Z,103267.50
2023-02-14T12:06:00.880Z,103261.38
2023-02-14T12:08:40.064Z,103253.66
2023-02-14T12:11:26.256Z,103255.72
2023-02-14T12:14:20.657Z,103254.72
2023-02-14T12:17:31.937Z,103263.16
2023-02-14T12:20:55.052Z,103258.09
2023-02-14T12:23:49.962Z,103256.13
2023-02-14T12:26:59.499Z,103256.84
2023-02-14T12:29:35.190Z,103241.22
2023-02-14T12:32:48.427Z,103249.69
2023-02-14T12:35:23.731Z,103250.31
2023-02-14T12:38:09.862Z,103240.50
2023-02-14T12:41:17.100Z,103231.25
2023-02-14T12:43:58.038Z,103220.84
2023-02-14T12:46:35.600Z,103220.69
2023-02-14T12:49:09.187Z,103219.09
2023-02-14T12:51:57.415Z,103221.97
2023-02-14T12:54:46.381Z,103215.25
2023-02-14T12:57:38.380Z,103217.53
2023-02-14T13:00:42.276Z,103210.97
2023-02-14T13:03:44.796Z,103203.19
2023-02-14T13:06:39.908Z,103197.09
2023-02-14T13:09:45.249Z,103198.44
2023-02-14T13:12:55.603Z,103191.22
2023-02-14T13:16:05.273Z,103196.44
2023-02-14T13:19:09.477Z,103194.69
2023-02-14T13:21:43.530Z,103174.13
2023-02-14T13:24:25.518Z,103178.94
2023-02-14T13:27:09.303Z,103182.63
2023-02-14T13:33:09.466Z,103165.22
2023-02-14T13:38:20.133Z,103155.00
2023-02-14T13:40:55.752Z,103147.47
2023-02-14T13:43:57.002Z,103150.38
2023-02-14T13:46:39.767Z,103143.47
2023-02-14T13:49:37.579Z,103133.00
2023-02-14T13:52:11.573Z,103127.06
2023-02-14T13:54:48.263Z,103116.19
2023-02-14T13:57:54.312Z,103129.97
2023-02-14T14:00:45.138Z,103116.88
2023-02-14T14:03:38.979Z,103122.22
2023-02-14T14:06:16.039Z,103115.53
2023-02-14T14:08:52.493Z,103109.25
2023-02-14T14:11:52.915Z,103100.63
2023-02-14T14:14:36.772Z,103106.53
2023-02-14T14:20:20.612Z,103109.13
2023-02-14T14:26:40.067Z,103098.16
2023-02-14T14:32:44.008Z,103092.44
2023-02-14T14:35:20.942Z,103093.16
2023-02-14T14:38:16.281Z,103090.78
2023-02-14T14:40:56.762Z,103101.63
2023-02-14T14:43:30.656Z,103094.50
2023-02-14T14:48:57.900Z,103095.06
2023-02-14T14:51:52.731Z,103080.59
2023-02-14T14:54:28.502Z,103095.47
2023-02-14T14:57:07.825Z,103082.88
2023-02-14T14:59:42.446Z,103080.81
2023-02-14T15:02:40.957Z,103088.31
2023-02-14T15:05:28.772Z,103084.31
2023-02-14T15:08:24.084Z,103094.75
2023-02-14T15:11:24.191Z,103100.66
2023-02-14T15:13:58.747Z,103103.72
2023-02-14T15:16:49.588Z,103091.91
2023-02-14T15:20:00.366Z,103099.78
2023-02-14T15:22:47.307Z,103112.25
2023-02-14T15:25:26.006Z,103105.25
2023-02-14T15:27:58.268Z,103094.16
2023-02-14T15:30:34.748Z,103094.44
2023-02-14T15:33:19.330Z,103095.69
2023-02-14T15:36:05.724Z,103087.69
2023-02-14T15:38:46.232Z,103085.47
2023-02-14T15:41:30.792Z,103081.31
2023-02-14T15:44:01.639Z,103083.31
2023-02-14T15:46:54.032Z,103085.91
2023-02-14T15:49:24.771Z,103078.38
2023-02-14T15:51:52.747Z,103079.28
2023-02-14T15:54:33.681Z,103085.13
2023-02-14T15:57:13.868Z,103070.00
2023-02-14T15:59:47.724Z,103074.25
2023-02-14T16:02:41.670Z,103074.44
2023-02-14T16:05:22.398Z,103066.69
2023-02-14T16:08:34.661Z,103080.06
2023-02-14T16:11:28.879Z,103067.88
2023-02-14T16:14:42.283Z,103064.69
2023-02-14T16:17:19.821Z,103073.94
2023-02-14T16:19:48.749Z,103074.69
2023-02-14T16:25:30.546Z,103066.72
2023-02-14T16:28:01.880Z,103073.91
2023-02-14T16:30:34.651Z,103077.84
2023-02-14T16:33:29.958Z,103083.72
2023-02-14T16:36:27.471Z,103073.50
2023-02-14T16:39:13.487Z,103084.53
2023-02-14T16:41:49.976Z,103080.06
2023-02-14T16:44:23.392Z,103078.03
2023-02-14T16:46:57.127Z,103080.97
2023-02-14T16:49:25.584Z,103080.16
2023-02-14T16:51:55.925Z,103086.75
2023-02-14T16:54:26.583Z,103080.31
2023-02-14T16:57:05.466Z,103076.88
2023-02-14T17:00:10.265Z,103070.91
2023-02-14T17:02:55.293Z,103075.53
2023-02-14T17:05:42.144Z,103071.66
2023-02-14T17:08:21.407Z,103080.41
2023-02-14T17:10:57.939Z,103072.72
2023-02-14T17:13:36.235Z,103064.94
2023-02-14T17:19:27.224Z,103072.31
2023-02-14T17:22:09.725Z,103069.19
2023-02-14T17:24:43.610Z,103066.84
2023-02-14T17:27:14.449Z,103073.66
2023-02-14T17:29:45.667Z,103071.31
2023-02-14T17:35:10.465Z,103068.91
2023-02-14T17:37:55.297Z,103072.63
2023-02-14T17:40:40.042Z,103062.78
2023-02-14T17:43:15.852Z,103072.31
2023-02-14T17:45:50.056Z,103073.50
2023-02-14T17:48:33.331Z,103078.41
2023-02-14T17:51:08.972Z,103077.97
2023-02-14T17:53:39.681Z,103082.03
2023-02-14T17:56:18.756Z,103084.38
2023-02-14T17:58:56.331Z,103079.09
2023-02-14T18:01:38.123Z,103082.09
2023-02-14T18:04:25.931Z,103081.75
2023-02-14T18:07:11.215Z,103077.53
2023-02-14T18:09:39.327Z,103074.84
2023-02-14T18:12:13.580Z,103073.94
2023-02-14T18:14:58.569Z,103086.75
2023-02-14T18:17:40.925Z,103079.25
2023-02-14T18:20:24.124Z,103076.56
2023-02-14T18:25:38.757Z,103090.09
2023-02-14T18:28:12.074Z,103076.34
2023-02-14T18:30:51.443Z,103086.09
2023-02-14T18:33:26.088Z,103084.78
2023-02-14T18:36:10.986Z,103087.94
2023-02-14T18:39:02.810Z,103081.31
2023-02-14T18:41:40.494Z,103079.34
2023-02-14T18:44:33.397Z,103092.41
2023-02-14T18:47:10.013Z,103089.38
2023-02-14T18:49:41.155Z,103091.81
2023-02-14T18:52:09.950Z,103090.25
2023-02-14T18:54:38.096Z,103089.56
2023-02-14T18:57:13.092Z,103078.47
2023-02-14T18:59:47.386Z,103082.78
2023-02-14T19:02:32.377Z,103087.44
2023-02-14T19:05:01.154Z,103092.66
2023-02-14T19:07:29.027Z,103091.31
2023-02-14T19:10:05.507Z,103092.88
2023-02-14T19:12:45.811Z,103086.91
2023-02-14T19:15:13.727Z,103083.59
2023-02-14T19:20:27.227Z,103089.03
2023-02-14T19:23:24.020Z,103088.56
2023-02-14T19:26:06.650Z,103083.22
2023-02-14T19:28:44.250Z,103082.50
2023-02-14T19:31:48.110Z,103091.69
2023-02-14T19:34:30.774Z,103090.69
2023-02-14T19:37:05.471Z,103085.78
2023-02-14T19:39:34.484Z,103080.91
2023-02-14T19:42:08.431Z,103078.28
2023-02-14T19:44:43.991Z,103078.22
2023-02-14T19:47:33.572Z,103081.91
2023-02-14T19:50:10.686Z,103089.63
2023-02-14T19:52:43.154Z,103085.88
2023-02-14T19:55:35.294Z,103085.88
2023-02-14T19:58:03.486Z,103078.91
2023-02-14T20:00:31.511Z,103087.88
2023-02-14T20:03:10.483Z,103078.84
2023-02-14T20:05:46.320Z,103074.91
2023-02-14T20:08:20.239Z,103075.44
2023-02-14T20:10:48.708Z,103072.00
2023-02-14T20:13:16.586Z,103076.25
2023-02-14T20:15:55.318Z,103076.13
2023-02-14T20:18:25.119Z,103080.34
2023-02-14T20:21:06.566Z,103070.34
2023-02-14T20:23:40.047Z,103077.03
2023-02-14T20:26:13.339Z,103086.03
2023-02-14T20:28:44.065Z,103074.19
2023-02-14T20:31:19.592Z,103071.19
2023-02-14T20:33:57.143Z,103068.84
2023-02-14T20:36:35.563Z,103066.41
2023-02-14T20:39:10.062Z,103067.22
2023-02-14T20:41:44.135Z,103074.22
2023-02-14T20:44:19.719Z,103074.38
2023-02-14T20:46:56.450Z,103075.25
2023-02-14T20:49:31.834Z,103072.50
2023-02-14T20:52:00.006Z,103079.44
2023-02-14T20:54:30.904Z,103077.78
2023-02-14T20:56:58.897Z,103074.22
2023-02-14T20:59:30.077Z,103076.91
2023-02-14T21:02:00.984Z,103076.91
2023-02-14T21:04:31.864Z,103069.91
2023-02-14T21:07:05.830Z,103070.53
2023-02-14T21:09:34.929Z,103073.06
2023-02-14T21:12:03.570Z,103075.34
2023-02-14T21:14:34.232Z,103065.75
2023-02-14T21:17:02.385Z,103067.53
2023-02-14T21:19:35.196Z,103069.88
2023-02-14T21:22:06.540Z,103070.88
2023-02-14T21:24:39.643Z,103061.97
2023-02-14T21:27:21.426Z,103062.78
2023-02-14T21:29:51.882Z,103064.19
2023-02-14T21:32:22.064Z,103061.91
2023-02-14T21:35:01.498Z,103065.41
2023-02-14T21:37:34.061Z,103061.84
2023-02-14T21:40:11.866Z,103061.84
2023-02-14T21:43:17.847Z,103060.56
2023-02-14T21:45:55.523Z,103061.00
2023-02-14T21:48:42.934Z,103061.75
2023-02-14T21:51:13.411Z,103065.25
2023-02-14T21:53:47.059Z,103067.69
2023-02-14T21:56:20.401Z,103065.00
2023-02-14T21:59:02.547Z,103059.81
2023-02-14T22:01:35.940Z,103058.72
2023-02-14T22:04:08.341Z,103057.81
2023-02-14T22:06:37.777Z,103063.69
2023-02-14T22:09:11.092Z,103060.19
2023-02-14T22:11:41.899Z,103070.53
2023-02-14T22:14:18.165Z,103069.44
2023-02-14T22:16:46.174Z,103070.81
2023-02-14T22:19:17.637Z,103074.22
2023-02-14T22:21:46.200Z,103075.03
2023-02-14T22:24:17.002Z,103071.53
2023-02-14T22:26:50.291Z,103070.00
2023-02-14T22:29:21.497Z,103067.03
2023-02-14T22:31:52.319Z,103074.03
2023-02-14T22:34:22.696Z,103078.19
2023-02-14T22:36:56.190Z,103077.94
2023-02-14T22:39:26.203Z,103071.84
2023-02-14T22:42:03.647Z,103076.03
2023-02-14T22:44:34.406Z,103070.50
2023-02-14T22:47:12.206Z,103085.31
2023-02-14T22:49:40.077Z,103077.75
2023-02-14T22:52:10.225Z,103077.31
2023-02-14T22:54:37.883Z,103070.56
2023-02-14T22:57:05.409Z,103070.66
2023-02-14T22:59:37.569Z,103077.25
2023-02-14T23:02:08.394Z,103072.03
2023-02-14T23:04:36.469Z,103072.84
2023-02-14T23:07:07.610Z,103070.69
2023-02-14T23:09:39.791Z,103073.22
2023-02-14T23:12:35.495Z,103068.81
2023-02-14T23:15:37.821Z,103072.22
2023-02-14T23:18:29.512Z,103076.53
2023-02-14T23:21:32.680Z,103068.53
2023-02-14T23:24:03.594Z,103063.16
2023-02-14T23:26:40.633Z,103061.72
2023-02-14T23:29:19.691Z,103067.63
2023-02-14T23:31:49.113Z,103071.41
2023-02-14T23:34:19.426Z,103068.09
2023-02-14T23:37:01.737Z,103057.59
2023-02-14T23:39:40.088Z,103063.44
2023-02-14T23:42:15.338Z,103054.81
2023-02-14T23:44:44.789Z,103053.09
2023-02-14T23:47:13.661Z,103050.50
2023-02-14T23:49:42.788Z,103051.50
2023-02-14T23:52:12.237Z,103046.69
2023-02-14T23:54:42.571Z,103045.13
2023-02-14T23:57:10.955Z,103042.88
2023-02-14T23:59:40.450Z,103033.47
